sensor_id;sensor_type;location;lat;lon;timestamp;P1;durP1;ratioP1;P2;durP2;ratioP2
18857;SDS011;9558;50.178;8.370;2023-05-10T00:02:10;0.20;;;0.10;;
18857;SDS011;9558;50.178;8.370;2023-05-10T00:04:56;0.75;;;0.20;;
18857;SDS011;9558;50.178;8.370;2023-05-10T00:07:44;0.00;;;0.00;;
18857;SDS011;9558;50.178;8.370;2023-05-10T00:10:31;3.20;;;0.15;;
18857;SDS011;9558;50.178;8.370;2023-05-10T00:13:18;0.00;;;0.00;;
18857;SDS011;9558;50.178;8.370;2023-05-10T00:16:05;0.10;;;0.10;;
18857;SDS011;9558;50.178;8.370;2023-05-10T00:18:52;0.00;;;0.00;;
18857;SDS011;9558;50.178;8.370;2023-05-10T00:21:39;0.82;;;0.20;;
18857;SDS011;9558;50.178;8.370;2023-05-10T00:24:27;2.63;;;0.10;;
18857;SDS011;9558;50.178;8.370;2023-05-10T00:27:14;0.00;;;0.00;;
18857;SDS011;9558;50.178;8.370;2023-05-10T00:30:00;0.00;;;0.00;;
18857;SDS011;9558;50.178;8.370;2023-05-10T00:32:47;0.68;;;0.00;;
18857;SDS011;9558;50.178;8.370;2023-05-10T00:35:35;0.10;;;0.00;;
18857;SDS011;9558;50.178;8.370;2023-05-10T00:38:23;0.00;;;0.00;;
18857;SDS011;9558;50.178;8.370;2023-05-10T00:41:11;0.00;;;0.00;;
18857;SDS011;9558;50.178;8.370;2023-05-10T00:43:58;0.35;;;0.00;;
18857;SDS011;9558;50.178;8.370;2023-05-10T00:46:44;0.00;;;0.00;;
18857;SDS011;9558;50.178;8.370;2023-05-10T00:49:31;0.00;;;0.00;;
18857;SDS011;9558;50.178;8.370;2023-05-10T00:52:18;0.00;;;0.00;;
18857;SDS011;9558;50.178;8.370;2023-05-10T00:55:06;0.20;;;0.10;;
18857;SDS011;9558;50.178;8.370;2023-05-10T00:57:55;0.03;;;0.03;;
18857;SDS011;9558;50.178;8.370;2023-05-10T01:00:42;0.03;;;0.00;;
18857;SDS011;9558;50.178;8.370;2023-05-10T01:03:33;0.10;;;0.10;;
18857;SDS011;9558;50.178;8.370;2023-05-10T01:06:20;0.00;;;0.00;;
18857;SDS011;9558;50.178;8.370;2023-05-10T01:09:07;8.07;;;0.20;;
18857;SDS011;9558;50.178;8.370;2023-05-10T01:11:54;0.10;;;0.10;;
18857;SDS011;9558;50.178;8.370;2023-05-10T01:14:42;0.00;;;0.00;;
18857;SDS011;9558;50.178;8.370;2023-05-10T01:17:29;7.75;;;0.22;;
18857;SDS011;9558;50.178;8.370;2023-05-10T01:20:16;1.10;;;0.03;;
18857;SDS011;9558;50.178;8.370;2023-05-10T01:33:19;0.03;;;0.03;;
18857;SDS011;9558;50.178;8.370;2023-05-10T01:36:13;0.00;;;0.00;;
18857;SDS011;9558;50.178;8.370;2023-05-10T01:39:11;0.57;;;0.00;;
18857;SDS011;9558;50.178;8.370;2023-05-10T01:42:07;0.00;;;0.00;;
18857;SDS011;9558;50.178;8.370;2023-05-10T01:44:57;0.00;;;0.00;;
18857;SDS011;9558;50.178;8.370;2023-05-10T01:47:46;0.20;;;0.10;;
18857;SDS011;9558;50.178;8.370;2023-05-10T01:50:43;0.00;;;0.00;;
18857;SDS011;9558;50.178;8.370;2023-05-10T01:53:31;0.13;;;0.00;;
18857;SDS011;9558;50.178;8.370;2023-05-10T01:56:22;3.30;;;0.10;;
18857;SDS011;9558;50.178;8.370;2023-05-10T01:59:13;0.00;;;0.00;;
18857;SDS011;9558;50.178;8.370;2023-05-10T02:02:03;0.00;;;0.00;;
18857;SDS011;9558;50.178;8.370;2023-05-10T02:04:52;0.00;;;0.00;;
18857;SDS011;9558;50.178;8.370;2023-05-10T02:07:42;0.10;;;0.10;;
18857;SDS011;9558;50.178;8.370;2023-05-10T02:10:29;0.00;;;0.00;;
18857;SDS011;9558;50.178;8.370;2023-05-10T02:13:17;0.00;;;0.00;;
18857;SDS011;9558;50.178;8.370;2023-05-10T02:16:05;2.30;;;0.00;;
18857;SDS011;9558;50.178;8.370;2023-05-10T02:18:53;3.72;;;0.05;;
18857;SDS011;9558;50.178;8.370;2023-05-10T02:21:42;1.00;;;0.20;;
18857;SDS011;9558;50.178;8.370;2023-05-10T02:24:32;0.22;;;0.00;;
18857;SDS011;9558;50.178;8.370;2023-05-10T02:27:21;0.20;;;0.20;;
18857;SDS011;9558;50.178;8.370;2023-05-10T02:30:12;0.30;;;0.10;;
18857;SDS011;9558;50.178;8.370;2023-05-10T02:33:00;0.30;;;0.10;;
18857;SDS011;9558;50.178;8.370;2023-05-10T02:35:48;6.45;;;0.10;;
18857;SDS011;9558;50.178;8.370;2023-05-10T02:38:36;0.03;;;0.03;;
18857;SDS011;9558;50.178;8.370;2023-05-10T02:41:25;0.10;;;0.10;;
18857;SDS011;9558;50.178;8.370;2023-05-10T02:44:13;1.27;;;0.10;;
18857;SDS011;9558;50.178;8.370;2023-05-10T02:47:03;0.10;;;0.10;;
18857;SDS011;9558;50.178;8.370;2023-05-10T02:49:50;11.52;;;0.40;;
18857;SDS011;9558;50.178;8.370;2023-05-10T02:52:39;0.13;;;0.00;;
18857;SDS011;9558;50.178;8.370;2023-05-10T02:55:31;3.30;;;0.10;;
18857;SDS011;9558;50.178;8.370;2023-05-10T03:01:09;0.20;;;0.05;;
18857;SDS011;9558;50.178;8.370;2023-05-10T03:03:56;0.10;;;0.10;;
18857;SDS011;9558;50.178;8.370;2023-05-10T03:06:43;0.10;;;0.10;;
18857;SDS011;9558;50.178;8.370;2023-05-10T03:09:30;4.28;;;0.20;;
18857;SDS011;9558;50.178;8.370;2023-05-10T03:12:19;3.13;;;0.28;;
18857;SDS011;9558;50.178;8.370;2023-05-10T03:15:20;1.20;;;0.20;;
18857;SDS011;9558;50.178;8.370;2023-05-10T03:18:12;10.50;;;0.30;;
18857;SDS011;9558;50.178;8.370;2023-05-10T03:21:04;0.10;;;0.10;;
18857;SDS011;9558;50.178;8.370;2023-05-10T03:23:58;0.95;;;0.10;;
18857;SDS011;9558;50.178;8.370;2023-05-10T03:26:49;0.43;;;0.20;;
18857;SDS011;9558;50.178;8.370;2023-05-10T03:29:41;0.82;;;0.50;;
18857;SDS011;9558;50.178;8.370;2023-05-10T03:32:31;0.73;;;0.30;;
18857;SDS011;9558;50.178;8.370;2023-05-10T03:35:19;4.13;;;0.32;;
18857;SDS011;9558;50.178;8.370;2023-05-10T03:38:06;0.30;;;0.30;;
18857;SDS011;9558;50.178;8.370;2023-05-10T03:40:53;0.30;;;0.30;;
18857;SDS011;9558;50.178;8.370;2023-05-10T03:43:39;4.88;;;0.30;;
18857;SDS011;9558;50.178;8.370;2023-05-10T03:46:26;0.52;;;0.30;;
18857;SDS011;9558;50.178;8.370;2023-05-10T03:49:14;0.30;;;0.30;;
18857;SDS011;9558;50.178;8.370;2023-05-10T03:52:01;0.35;;;0.20;;
18857;SDS011;9558;50.178;8.370;2023-05-10T03:54:48;0.40;;;0.40;;
18857;SDS011;9558;50.178;8.370;2023-05-10T03:57:34;1.65;;;0.20;;
18857;SDS011;9558;50.178;8.370;2023-05-10T04:00:21;0.35;;;0.35;;
18857;SDS011;9558;50.178;8.370;2023-05-10T04:03:08;0.30;;;0.30;;
18857;SDS011;9558;50.178;8.370;2023-05-10T04:06:00;0.75;;;0.52;;
18857;SDS011;9558;50.178;8.370;2023-05-10T04:08:47;1.00;;;0.40;;
18857;SDS011;9558;50.178;8.370;2023-05-10T04:11:33;0.47;;;0.47;;
18857;SDS011;9558;50.178;8.370;2023-05-10T04:14:20;0.25;;;0.25;;
18857;SDS011;9558;50.178;8.370;2023-05-10T04:17:07;0.40;;;0.30;;
18857;SDS011;9558;50.178;8.370;2023-05-10T04:19:54;0.47;;;0.45;;
18857;SDS011;9558;50.178;8.370;2023-05-10T04:22:43;0.75;;;0.45;;
18857;SDS011;9558;50.178;8.370;2023-05-10T04:25:30;2.97;;;0.30;;
18857;SDS011;9558;50.178;8.370;2023-05-10T04:28:16;5.47;;;0.60;;
18857;SDS011;9558;50.178;8.370;2023-05-10T04:31:03;0.38;;;0.38;;
18857;SDS011;9558;50.178;8.370;2023-05-10T04:33:51;0.60;;;0.45;;
18857;SDS011;9558;50.178;8.370;2023-05-10T04:36:38;0.40;;;0.40;;
18857;SDS011;9558;50.178;8.370;2023-05-10T04:39:26;0.95;;;0.80;;
18857;SDS011;9558;50.178;8.370;2023-05-10T04:42:13;0.73;;;0.52;;
18857;SDS011;9558;50.178;8.370;2023-05-10T04:45:00;0.65;;;0.60;;
18857;SDS011;9558;50.178;8.370;2023-05-10T04:47:47;2.75;;;0.88;;
18857;SDS011;9558;50.178;8.370;2023-05-10T04:50:34;0.52;;;0.52;;
18857;SDS011;9558;50.178;8.370;2023-05-10T04:53:20;1.20;;;0.50;;
18857;SDS011;9558;50.178;8.370;2023-05-10T04:56:08;0.68;;;0.68;;
18857;SDS011;9558;50.178;8.370;2023-05-10T04:58:55;3.08;;;0.77;;
18857;SDS011;9558;50.178;8.370;2023-05-10T05:01:43;3.10;;;0.60;;
18857;SDS011;9558;50.178;8.370;2023-05-10T05:04:29;0.98;;;0.80;;
18857;SDS011;9558;50.178;8.370;2023-05-10T05:07:16;1.33;;;0.80;;
18857;SDS011;9558;50.178;8.370;2023-05-10T05:10:03;0.77;;;0.63;;
18857;SDS011;9558;50.178;8.370;2023-05-10T05:12:52;2.05;;;0.68;;
18857;SDS011;9558;50.178;8.370;2023-05-10T05:15:39;3.10;;;0.50;;
18857;SDS011;9558;50.178;8.370;2023-05-10T05:18:26;1.08;;;0.55;;
18857;SDS011;9558;50.178;8.370;2023-05-10T05:21:13;0.90;;;0.40;;
18857;SDS011;9558;50.178;8.370;2023-05-10T05:24:01;0.77;;;0.47;;
18857;SDS011;9558;50.178;8.370;2023-05-10T05:26:48;0.32;;;0.32;;
18857;SDS011;9558;50.178;8.370;2023-05-10T05:29:36;0.73;;;0.63;;
18857;SDS011;9558;50.178;8.370;2023-05-10T05:32:23;1.27;;;0.43;;
18857;SDS011;9558;50.178;8.370;2023-05-10T05:35:10;0.52;;;0.47;;
18857;SDS011;9558;50.178;8.370;2023-05-10T05:37:57;0.40;;;0.40;;
18857;SDS011;9558;50.178;8.370;2023-05-10T05:40:44;1.05;;;0.40;;
18857;SDS011;9558;50.178;8.370;2023-05-10T05:43:31;0.85;;;0.70;;
18857;SDS011;9558;50.178;8.370;2023-05-10T05:46:19;0.70;;;0.60;;
18857;SDS011;9558;50.178;8.370;2023-05-10T05:49:06;0.90;;;0.70;;
18857;SDS011;9558;50.178;8.370;2023-05-10T05:51:53;5.68;;;1.00;;
18857;SDS011;9558;50.178;8.370;2023-05-10T05:54:40;2.00;;;1.00;;
18857;SDS011;9558;50.178;8.370;2023-05-10T05:57:26;0.88;;;0.73;;
18857;SDS011;9558;50.178;8.370;2023-05-10T06:00:13;1.08;;;0.80;;
18857;SDS011;9558;50.178;8.370;2023-05-10T06:03:02;0.75;;;0.75;;
18857;SDS011;9558;50.178;8.370;2023-05-10T06:05:49;5.82;;;2.65;;
18857;SDS011;9558;50.178;8.370;2023-05-10T06:08:36;1.17;;;0.77;;
18857;SDS011;9558;50.178;8.370;2023-05-10T06:11:23;1.13;;;0.80;;
18857;SDS011;9558;50.178;8.370;2023-05-10T06:14:10;1.85;;;0.63;;
18857;SDS011;9558;50.178;8.370;2023-05-10T06:16:57;0.45;;;0.43;;
18857;SDS011;9558;50.178;8.370;2023-05-10T06:19:46;0.55;;;0.43;;
18857;SDS011;9558;50.178;8.370;2023-05-10T06:22:33;2.63;;;0.85;;
18857;SDS011;9558;50.178;8.370;2023-05-10T06:25:19;0.70;;;0.60;;
18857;SDS011;9558;50.178;8.370;2023-05-10T06:28:06;0.93;;;0.63;;
18857;SDS011;9558;50.178;8.370;2023-05-10T06:30:53;3.88;;;0.52;;
18857;SDS011;9558;50.178;8.370;2023-05-10T06:33:40;3.65;;;0.70;;
18857;SDS011;9558;50.178;8.370;2023-05-10T06:36:28;1.35;;;0.80;;
18857;SDS011;9558;50.178;8.370;2023-05-10T06:39:14;1.65;;;0.90;;
18857;SDS011;9558;50.178;8.370;2023-05-10T06:42:01;7.32;;;1.00;;
18857;SDS011;9558;50.178;8.370;2023-05-10T06:44:49;1.35;;;0.60;;
18857;SDS011;9558;50.178;8.370;2023-05-10T06:47:36;3.53;;;0.63;;
18857;SDS011;9558;50.178;8.370;2023-05-10T06:50:23;0.65;;;0.50;;
18857;SDS011;9558;50.178;8.370;2023-05-10T06:53:11;0.70;;;0.68;;
18857;SDS011;9558;50.178;8.370;2023-05-10T06:55:58;1.00;;;0.60;;
18857;SDS011;9558;50.178;8.370;2023-05-10T06:58:45;4.22;;;0.60;;
18857;SDS011;9558;50.178;8.370;2023-05-10T07:01:32;1.00;;;0.65;;
18857;SDS011;9558;50.178;8.370;2023-05-10T07:04:19;0.40;;;0.40;;
18857;SDS011;9558;50.178;8.370;2023-05-10T07:07:05;1.02;;;0.80;;
18857;SDS011;9558;50.178;8.370;2023-05-10T07:09:53;0.77;;;0.60;;
18857;SDS011;9558;50.178;8.370;2023-05-10T07:12:41;1.95;;;0.60;;
18857;SDS011;9558;50.178;8.370;2023-05-10T07:15:28;2.83;;;0.57;;
18857;SDS011;9558;50.178;8.370;2023-05-10T07:18:15;0.50;;;0.50;;
18857;SDS011;9558;50.178;8.370;2023-05-10T07:21:02;2.25;;;0.50;;
18857;SDS011;9558;50.178;8.370;2023-05-10T07:23:49;0.47;;;0.47;;
18857;SDS011;9558;50.178;8.370;2023-05-10T07:26:38;0.52;;;0.40;;
18857;SDS011;9558;50.178;8.370;2023-05-10T07:29:25;0.52;;;0.50;;
18857;SDS011;9558;50.178;8.370;2023-05-10T07:32:11;1.80;;;0.60;;
18857;SDS011;9558;50.178;8.370;2023-05-10T07:34:58;1.48;;;0.80;;
18857;SDS011;9558;50.178;8.370;2023-05-10T07:37:45;2.20;;;0.60;;
18857;SDS011;9558;50.178;8.370;2023-05-10T07:40:32;0.65;;;0.50;;
18857;SDS011;9558;50.178;8.370;2023-05-10T07:43:20;1.02;;;0.40;;
18857;SDS011;9558;50.178;8.370;2023-05-10T07:46:07;2.30;;;0.45;;
18857;SDS011;9558;50.178;8.370;2023-05-10T07:48:55;0.70;;;0.40;;
18857;SDS011;9558;50.178;8.370;2023-05-10T07:51:42;1.38;;;0.50;;
18857;SDS011;9558;50.178;8.370;2023-05-10T07:54:28;0.45;;;0.45;;
18857;SDS011;9558;50.178;8.370;2023-05-10T07:57:15;1.50;;;0.57;;
18857;SDS011;9558;50.178;8.370;2023-05-10T08:00:04;1.25;;;0.52;;
18857;SDS011;9558;50.178;8.370;2023-05-10T08:02:52;1.33;;;0.60;;
18857;SDS011;9558;50.178;8.370;2023-05-10T08:05:39;1.67;;;0.70;;
18857;SDS011;9558;50.178;8.370;2023-05-10T08:08:25;2.55;;;0.85;;
18857;SDS011;9558;50.178;8.370;2023-05-10T08:11:12;1.00;;;0.55;;
18857;SDS011;9558;50.178;8.370;2023-05-10T08:13:59;0.90;;;0.63;;
18857;SDS011;9558;50.178;8.370;2023-05-10T08:16:47;0.65;;;0.50;;
18857;SDS011;9558;50.178;8.370;2023-05-10T08:19:34;0.70;;;0.63;;
18857;SDS011;9558;50.178;8.370;2023-05-10T08:22:21;1.23;;;0.57;;
18857;SDS011;9558;50.178;8.370;2023-05-10T08:25:08;0.70;;;0.60;;
18857;SDS011;9558;50.178;8.370;2023-05-10T08:27:55;0.65;;;0.50;;
18857;SDS011;9558;50.178;8.370;2023-05-10T08:30:42;2.65;;;0.60;;
18857;SDS011;9558;50.178;8.370;2023-05-10T08:33:30;0.75;;;0.73;;
18857;SDS011;9558;50.178;8.370;2023-05-10T08:36:16;1.88;;;0.65;;
18857;SDS011;9558;50.178;8.370;2023-05-10T08:39:06;1.73;;;0.70;;
18857;SDS011;9558;50.178;8.370;2023-05-10T08:41:53;3.00;;;0.63;;
18857;SDS011;9558;50.178;8.370;2023-05-10T08:44:44;0.57;;;0.52;;
18857;SDS011;9558;50.178;8.370;2023-05-10T08:47:34;1.52;;;0.80;;
18857;SDS011;9558;50.178;8.370;2023-05-10T08:50:24;4.20;;;0.90;;
18857;SDS011;9558;50.178;8.370;2023-05-10T08:53:12;1.90;;;0.70;;
18857;SDS011;9558;50.178;8.370;2023-05-10T08:56:00;1.67;;;0.52;;
18857;SDS011;9558;50.178;8.370;2023-05-10T08:58:48;1.88;;;0.75;;
18857;SDS011;9558;50.178;8.370;2023-05-10T09:01:35;0.93;;;0.70;;
18857;SDS011;9558;50.178;8.370;2023-05-10T09:04:23;0.77;;;0.50;;
18857;SDS011;9558;50.178;8.370;2023-05-10T09:07:11;1.25;;;0.43;;
18857;SDS011;9558;50.178;8.370;2023-05-10T09:09:58;1.52;;;1.00;;
18857;SDS011;9558;50.178;8.370;2023-05-10T09:12:45;1.52;;;0.60;;
18857;SDS011;9558;50.178;8.370;2023-05-10T09:15:34;2.47;;;0.95;;
18857;SDS011;9558;50.178;8.370;2023-05-10T09:18:20;1.23;;;0.65;;
18857;SDS011;9558;50.178;8.370;2023-05-10T09:21:07;1.20;;;0.50;;
18857;SDS011;9558;50.178;8.370;2023-05-10T09:23:57;0.98;;;0.57;;
18857;SDS011;9558;50.178;8.370;2023-05-10T09:26:49;3.20;;;0.80;;
18857;SDS011;9558;50.178;8.370;2023-05-10T09:29:39;1.10;;;0.50;;
18857;SDS011;9558;50.178;8.370;2023-05-10T09:32:35;1.88;;;0.70;;
18857;SDS011;9558;50.178;8.370;2023-05-10T09:35:23;2.60;;;0.60;;
18857;SDS011;9558;50.178;8.370;2023-05-10T09:38:11;0.55;;;0.47;;
18857;SDS011;9558;50.178;8.370;2023-05-10T09:40:59;0.80;;;0.57;;
18857;SDS011;9558;50.178;8.370;2023-05-10T09:43:47;2.40;;;0.60;;
18857;SDS011;9558;50.178;8.370;2023-05-10T09:46:35;1.15;;;0.50;;
18857;SDS011;9558;50.178;8.370;2023-05-10T09:49:22;0.95;;;0.55;;
18857;SDS011;9558;50.178;8.370;2023-05-10T09:52:09;0.85;;;0.47;;
18857;SDS011;9558;50.178;8.370;2023-05-10T09:54:55;0.40;;;0.40;;
18857;SDS011;9558;50.178;8.370;2023-05-10T09:57:44;0.52;;;0.32;;
18857;SDS011;9558;50.178;8.370;2023-05-10T10:00:34;0.65;;;0.50;;
18857;SDS011;9558;50.178;8.370;2023-05-10T10:03:21;2.05;;;0.30;;
18857;SDS011;9558;50.178;8.370;2023-05-10T10:06:09;0.85;;;0.40;;
18857;SDS011;9558;50.178;8.370;2023-05-10T10:08:56;0.40;;;0.40;;
18857;SDS011;9558;50.178;8.370;2023-05-10T10:11:43;0.20;;;0.20;;
18857;SDS011;9558;50.178;8.370;2023-05-10T10:14:31;2.25;;;0.13;;
18857;SDS011;9558;50.178;8.370;2023-05-10T10:17:18;1.45;;;0.30;;
18857;SDS011;9558;50.178;8.370;2023-05-10T10:20:06;0.20;;;0.20;;
18857;SDS011;9558;50.178;8.370;2023-05-10T10:22:54;2.40;;;0.20;;
18857;SDS011;9558;50.178;8.370;2023-05-10T10:25:41;0.20;;;0.20;;
18857;SDS011;9558;50.178;8.370;2023-05-10T10:28:32;0.65;;;0.43;;
18857;SDS011;9558;50.178;8.370;2023-05-10T10:31:27;0.47;;;0.35;;
18857;SDS011;9558;50.178;8.370;2023-05-10T10:34:22;0.25;;;0.20;;
18857;SDS011;9558;50.178;8.370;2023-05-10T10:37:13;0.95;;;0.25;;
18857;SDS011;9558;50.178;8.370;2023-05-10T10:40:00;0.20;;;0.20;;
18857;SDS011;9558;50.178;8.370;2023-05-10T10:42:47;0.32;;;0.20;;
18857;SDS011;9558;50.178;8.370;2023-05-10T10:45:38;0.10;;;0.10;;
18857;SDS011;9558;50.178;8.370;2023-05-10T10:48:27;0.10;;;0.10;;
18857;SDS011;9558;50.178;8.370;2023-05-10T10:51:14;0.80;;;0.30;;
18857;SDS011;9558;50.178;8.370;2023-05-10T10:54:08;0.47;;;0.10;;
18857;SDS011;9558;50.178;8.370;2023-05-10T11:03:20;0.63;;;0.20;;
18857;SDS011;9558;50.178;8.370;2023-05-10T11:06:10;0.10;;;0.10;;
18857;SDS011;9558;50.178;8.370;2023-05-10T11:08:57;0.10;;;0.10;;
18857;SDS011;9558;50.178;8.370;2023-05-10T11:11:50;0.15;;;0.10;;
18857;SDS011;9558;50.178;8.370;2023-05-10T11:14:40;0.38;;;0.30;;
18857;SDS011;9558;50.178;8.370;2023-05-10T11:17:27;0.20;;;0.10;;
18857;SDS011;9558;50.178;8.370;2023-05-10T11:20:14;3.55;;;0.40;;
18857;SDS011;9558;50.178;8.370;2023-05-10T11:23:11;1.88;;;0.80;;
18857;SDS011;9558;50.178;8.370;2023-05-10T11:26:01;0.88;;;0.60;;
18857;SDS011;9558;50.178;8.370;2023-05-10T11:28:48;2.17;;;0.47;;
18857;SDS011;9558;50.178;8.370;2023-05-10T11:31:35;1.13;;;0.17;;
18857;SDS011;9558;50.178;8.370;2023-05-10T11:34:29;0.50;;;0.50;;
18857;SDS011;9558;50.178;8.370;2023-05-10T11:37:18;0.20;;;0.20;;
18857;SDS011;9558;50.178;8.370;2023-05-10T11:40:07;0.10;;;0.10;;
18857;SDS011;9558;50.178;8.370;2023-05-10T11:42:55;0.65;;;0.30;;
18857;SDS011;9558;50.178;8.370;2023-05-10T11:45:42;0.10;;;0.10;;
18857;SDS011;9558;50.178;8.370;2023-05-10T11:48:29;0.20;;;0.20;;
18857;SDS011;9558;50.178;8.370;2023-05-10T11:51:19;0.10;;;0.10;;
18857;SDS011;9558;50.178;8.370;2023-05-10T11:54:07;0.52;;;0.10;;
18857;SDS011;9558;50.178;8.370;2023-05-10T11:56:56;0.10;;;0.10;;
18857;SDS011;9558;50.178;8.370;2023-05-10T11:59:43;1.27;;;0.20;;
18857;SDS011;9558;50.178;8.370;2023-05-10T12:02:30;0.35;;;0.20;;
18857;SDS011;9558;50.178;8.370;2023-05-10T12:05:17;0.20;;;0.20;;
18857;SDS011;9558;50.178;8.370;2023-05-10T12:08:10;0.10;;;0.10;;
18857;SDS011;9558;50.178;8.370;2023-05-10T12:11:05;0.35;;;0.22;;
18857;SDS011;9558;50.178;8.370;2023-05-10T12:13:54;0.10;;;0.10;;
18857;SDS011;9558;50.178;8.370;2023-05-10T12:16:42;0.40;;;0.20;;
18857;SDS011;9558;50.178;8.370;2023-05-10T12:19:36;2.67;;;0.17;;
18857;SDS011;9558;50.178;8.370;2023-05-10T12:22:23;0.15;;;0.15;;
18857;SDS011;9558;50.178;8.370;2023-05-10T12:25:10;0.77;;;0.10;;
18857;SDS011;9558;50.178;8.370;2023-05-10T12:27:57;1.10;;;0.10;;
18857;SDS011;9558;50.178;8.370;2023-05-10T12:30:47;0.22;;;0.15;;
18857;SDS011;9558;50.178;8.370;2023-05-10T12:33:37;0.70;;;0.20;;
18857;SDS011;9558;50.178;8.370;2023-05-10T12:36:26;0.20;;;0.10;;
18857;SDS011;9558;50.178;8.370;2023-05-10T12:39:13;1.85;;;0.25;;
18857;SDS011;9558;50.178;8.370;2023-05-10T12:42:00;0.20;;;0.20;;
18857;SDS011;9558;50.178;8.370;2023-05-10T12:44:47;0.35;;;0.22;;
18857;SDS011;9558;50.178;8.370;2023-05-10T12:47:35;2.25;;;0.30;;
18857;SDS011;9558;50.178;8.370;2023-05-10T12:50:21;0.10;;;0.00;;
18857;SDS011;9558;50.178;8.370;2023-05-10T12:53:09;0.10;;;0.10;;
18857;SDS011;9558;50.178;8.370;2023-05-10T12:55:56;0.63;;;0.20;;
18857;SDS011;9558;50.178;8.370;2023-05-10T12:58:43;0.10;;;0.10;;
18857;SDS011;9558;50.178;8.370;2023-05-10T13:01:33;0.50;;;0.20;;
18857;SDS011;9558;50.178;8.370;2023-05-10T13:04:21;0.88;;;0.45;;
18857;SDS011;9558;50.178;8.370;2023-05-10T13:07:08;2.65;;;0.35;;
18857;SDS011;9558;50.178;8.370;2023-05-10T13:09:55;0.65;;;0.20;;
18857;SDS011;9558;50.178;8.370;2023-05-10T13:12:42;0.25;;;0.20;;
18857;SDS011;9558;50.178;8.370;2023-05-10T13:15:28;0.22;;;0.20;;
18857;SDS011;9558;50.178;8.370;2023-05-10T13:18:15;0.40;;;0.30;;
18857;SDS011;9558;50.178;8.370;2023-05-10T13:21:03;0.20;;;0.20;;
18857;SDS011;9558;50.178;8.370;2023-05-10T13:23:51;0.25;;;0.20;;
18857;SDS011;9558;50.178;8.370;2023-05-10T13:26:37;0.47;;;0.30;;
18857;SDS011;9558;50.178;8.370;2023-05-10T13:29:24;0.20;;;0.20;;
18857;SDS011;9558;50.178;8.370;2023-05-10T13:32:11;0.40;;;0.20;;
18857;SDS011;9558;50.178;8.370;2023-05-10T13:34:58;1.85;;;0.20;;
18857;SDS011;9558;50.178;8.370;2023-05-10T13:37:46;0.17;;;0.17;;
18857;SDS011;9558;50.178;8.370;2023-05-10T13:40:32;0.40;;;0.10;;
18857;SDS011;9558;50.178;8.370;2023-05-10T13:43:19;0.68;;;0.20;;
18857;SDS011;9558;50.178;8.370;2023-05-10T13:46:06;0.55;;;0.30;;
18857;SDS011;9558;50.178;8.370;2023-05-10T13:48:53;0.35;;;0.10;;
18857;SDS011;9558;50.178;8.370;2023-05-10T13:51:39;0.57;;;0.25;;
18857;SDS011;9558;50.178;8.370;2023-05-10T13:54:27;0.20;;;0.20;;
18857;SDS011;9558;50.178;8.370;2023-05-10T13:57:15;0.03;;;0.03;;
18857;SDS011;9558;50.178;8.370;2023-05-10T14:00:02;0.75;;;0.20;;
18857;SDS011;9558;50.178;8.370;2023-05-10T14:02:49;0.22;;;0.20;;
18857;SDS011;9558;50.178;8.370;2023-05-10T14:05:36;0.30;;;0.30;;
18857;SDS011;9558;50.178;8.370;2023-05-10T14:08:23;0.10;;;0.10;;
18857;SDS011;9558;50.178;8.370;2023-05-10T14:11:13;1.98;;;0.20;;
18857;SDS011;9558;50.178;8.370;2023-05-10T14:14:00;0.10;;;0.10;;
18857;SDS011;9558;50.178;8.370;2023-05-10T14:16:47;0.10;;;0.10;;
18857;SDS011;9558;50.178;8.370;2023-05-10T14:19:34;0.20;;;0.20;;
18857;SDS011;9558;50.178;8.370;2023-05-10T14:22:21;0.10;;;0.10;;
18857;SDS011;9558;50.178;8.370;2023-05-10T14:25:08;0.20;;;0.10;;
18857;SDS011;9558;50.178;8.370;2023-05-10T14:27:56;0.03;;;0.03;;
18857;SDS011;9558;50.178;8.370;2023-05-10T14:30:43;0.10;;;0.10;;
18857;SDS011;9558;50.178;8.370;2023-05-10T14:33:30;0.10;;;0.10;;
18857;SDS011;9558;50.178;8.370;2023-05-10T14:36:17;0.30;;;0.13;;
18857;SDS011;9558;50.178;8.370;2023-05-10T14:39:04;0.88;;;0.20;;
18857;SDS011;9558;50.178;8.370;2023-05-10T14:41:51;0.47;;;0.10;;
18857;SDS011;9558;50.178;8.370;2023-05-10T14:44:39;0.17;;;0.10;;
18857;SDS011;9558;50.178;8.370;2023-05-10T14:47:26;0.10;;;0.10;;
18857;SDS011;9558;50.178;8.370;2023-05-10T14:50:13;0.20;;;0.20;;
18857;SDS011;9558;50.178;8.370;2023-05-10T14:53:00;0.10;;;0.10;;
18857;SDS011;9558;50.178;8.370;2023-05-10T14:55:47;0.43;;;0.30;;
18857;SDS011;9558;50.178;8.370;2023-05-10T14:58:34;0.20;;;0.20;;
18857;SDS011;9558;50.178;8.370;2023-05-10T15:01:22;0.10;;;0.10;;
18857;SDS011;9558;50.178;8.370;2023-05-10T15:04:08;0.10;;;0.10;;
18857;SDS011;9558;50.178;8.370;2023-05-10T15:06:55;0.30;;;0.30;;
18857;SDS011;9558;50.178;8.370;2023-05-10T15:09:44;0.77;;;0.20;;
18857;SDS011;9558;50.178;8.370;2023-05-10T15:12:31;1.20;;;0.08;;
18857;SDS011;9558;50.178;8.370;2023-05-10T15:15:17;0.20;;;0.20;;
18857;SDS011;9558;50.178;8.370;2023-05-10T15:18:05;0.20;;;0.20;;
18857;SDS011;9558;50.178;8.370;2023-05-10T15:20:52;0.47;;;0.20;;
18857;SDS011;9558;50.178;8.370;2023-05-10T15:23:40;0.10;;;0.10;;
18857;SDS011;9558;50.178;8.370;2023-05-10T15:26:27;0.10;;;0.10;;
18857;SDS011;9558;50.178;8.370;2023-05-10T15:29:13;1.48;;;0.20;;
18857;SDS011;9558;50.178;8.370;2023-05-10T15:32:04;1.38;;;0.20;;
18857;SDS011;9558;50.178;8.370;2023-05-10T15:34:53;0.32;;;0.20;;
18857;SDS011;9558;50.178;8.370;2023-05-10T15:37:39;0.28;;;0.20;;
18857;SDS011;9558;50.178;8.370;2023-05-10T15:40:26;1.27;;;0.17;;
18857;SDS011;9558;50.178;8.370;2023-05-10T15:43:13;1.25;;;0.20;;
18857;SDS011;9558;50.178;8.370;2023-05-10T15:46:00;0.22;;;0.22;;
18857;SDS011;9558;50.178;8.370;2023-05-10T15:48:47;0.80;;;0.20;;
18857;SDS011;9558;50.178;8.370;2023-05-10T15:51:35;0.20;;;0.20;;
18857;SDS011;9558;50.178;8.370;2023-05-10T15:54:22;1.13;;;0.20;;
18857;SDS011;9558;50.178;8.370;2023-05-10T15:57:09;0.10;;;0.10;;
18857;SDS011;9558;50.178;8.370;2023-05-10T15:59:56;0.20;;;0.20;;
18857;SDS011;9558;50.178;8.370;2023-05-10T16:02:42;0.55;;;0.13;;
18857;SDS011;9558;50.178;8.370;2023-05-10T16:05:29;0.90;;;0.30;;
18857;SDS011;9558;50.178;8.370;2023-05-10T16:08:19;0.20;;;0.20;;
18857;SDS011;9558;50.178;8.370;2023-05-10T16:11:06;0.55;;;0.20;;
18857;SDS011;9558;50.178;8.370;2023-05-10T16:13:53;0.47;;;0.10;;
18857;SDS011;9558;50.178;8.370;2023-05-10T16:16:40;0.35;;;0.35;;
18857;SDS011;9558;50.178;8.370;2023-05-10T16:19:27;0.35;;;0.28;;
18857;SDS011;9558;50.178;8.370;2023-05-10T16:22:14;0.77;;;0.32;;
18857;SDS011;9558;50.178;8.370;2023-05-10T16:25:02;1.70;;;0.45;;
18857;SDS011;9558;50.178;8.370;2023-05-10T16:27:49;0.30;;;0.30;;
18857;SDS011;9558;50.178;8.370;2023-05-10T16:30:36;0.57;;;0.30;;
18857;SDS011;9558;50.178;8.370;2023-05-10T16:33:23;1.40;;;0.50;;
18857;SDS011;9558;50.178;8.370;2023-05-10T16:36:09;3.03;;;0.40;;
18857;SDS011;9558;50.178;8.370;2023-05-10T16:38:56;0.45;;;0.45;;
18857;SDS011;9558;50.178;8.370;2023-05-10T16:41:45;0.75;;;0.40;;
18857;SDS011;9558;50.178;8.370;2023-05-10T16:44:31;1.75;;;0.40;;
18857;SDS011;9558;50.178;8.370;2023-05-10T16:47:18;0.88;;;0.30;;
18857;SDS011;9558;50.178;8.370;2023-05-10T16:50:06;0.40;;;0.35;;
18857;SDS011;9558;50.178;8.370;2023-05-10T16:52:53;0.28;;;0.28;;
18857;SDS011;9558;50.178;8.370;2023-05-10T16:55:40;0.20;;;0.20;;
18857;SDS011;9558;50.178;8.370;2023-05-10T16:58:28;0.20;;;0.20;;
18857;SDS011;9558;50.178;8.370;2023-05-10T17:01:15;0.40;;;0.30;;
18857;SDS011;9558;50.178;8.370;2023-05-10T17:04:02;2.17;;;0.60;;
18857;SDS011;9558;50.178;8.370;2023-05-10T17:06:49;0.77;;;0.40;;
18857;SDS011;9558;50.178;8.370;2023-05-10T17:09:35;0.30;;;0.20;;
18857;SDS011;9558;50.178;8.370;2023-05-10T17:12:22;0.30;;;0.30;;
18857;SDS011;9558;50.178;8.370;2023-05-10T17:15:10;0.65;;;0.20;;
18857;SDS011;9558;50.178;8.370;2023-05-10T17:17:57;0.30;;;0.30;;
18857;SDS011;9558;50.178;8.370;2023-05-10T17:20:44;1.85;;;0.43;;
18857;SDS011;9558;50.178;8.370;2023-05-10T17:23:31;0.82;;;0.40;;
18857;SDS011;9558;50.178;8.370;2023-05-10T17:26:18;1.13;;;0.30;;